Time;durP1;ratioP1;P1;durP2;ratioP2;P2;SDS_P1;SDS_P2;PMS_P1;PMS_P2;Temp;Humidity;BMP_temperature;BMP_pressure;BME280_temperature;BME280_humidity;BME280_pressure;Samples;Min_cycle;Max_cycle;Signal;HPM_P1;HPM_P2
2020/12/10 00:02:37;;;;;;;7.28;2.65;;;;;;;-4.93;44.48;101116.53;10503449;28;20510;-50
2020/12/10 00:07:40;;;;;;;11.45;4.70;;;;;;;-4.93;44.38;101113.09;10504030;28;20051;-52
2020/12/10 00:12:43;;;;;;;14.77;3.90;;;;;;;-4.95;44.31;101107.16;10503082;28;20473;-55
2020/12/10 00:17:45;;;;;;;13.23;3.72;;;;;;;-4.97;44.32;101102.00;10503004;28;20075;-54
2020/12/10 00:22:47;;;;;;;12.70;4.60;;;;;;;-5.00;44.27;101098.59;10502355;28;20055;-55
2020/12/10 00:27:49;;;;;;;7.27;2.20;;;;;;;-5.02;44.20;101105.41;10502646;28;20053;-52
2020/12/10 00:32:50;;;;;;;8.50;2.17;;;;;;;-5.05;44.26;101095.16;10502921;28;20045;-55
2020/12/10 00:37:53;;;;;;;14.77;4.60;;;;;;;-5.07;44.20;101095.16;10501939;28;20083;-53
2020/12/10 00:42:55;;;;;;;10.32;4.22;;;;;;;-5.12;43.91;101084.03;10500764;28;20049;-50
2020/12/10 00:47:56;;;;;;;5.53;1.83;;;;;;;-5.18;44.30;101090.00;10492899;28;20481;-52
2020/12/10 00:52:59;;;;;;;4.32;1.92;;;;;;;-5.24;44.24;101087.44;10499546;28;20048;-50
2020/12/10 00:58:01;;;;;;;5.17;2.37;;;;;;;-5.34;44.19;101083.16;10499855;28;20398;-55
2020/12/10 01:03:03;;;;;;;16.73;6.72;;;;;;;-5.39;44.23;101080.59;10502023;28;20058;-52
2020/12/10 01:08:05;;;;;;;6.38;3.00;;;;;;;-5.43;44.48;101072.88;10500311;28;20044;-50
2020/12/10 01:13:07;;;;;;;7.70;3.43;;;;;;;-5.49;44.63;101078.84;10499976;28;20062;-54
2020/12/10 01:18:09;;;;;;;11.52;3.42;;;;;;;-5.55;44.43;101066.88;10500535;28;20052;-51
2020/12/10 01:23:12;;;;;;;5.72;2.35;;;;;;;-5.57;44.53;101071.16;10500702;28;20139;-52
2020/12/10 01:28:14;;;;;;;6.65;3.15;;;;;;;-5.58;44.43;101061.72;10501139;28;20389;-52
2020/12/10 01:33:16;;;;;;;6.45;2.67;;;;;;;-5.62;44.46;101057.47;10500874;28;20132;-51
2020/12/10 01:38:19;;;;;;;9.43;3.80;;;;;;;-5.67;44.66;101048.91;10498461;28;20046;-51
2020/12/10 01:43:21;;;;;;;10.57;2.35;;;;;;;-5.75;44.76;101040.34;10500148;28;20048;-50
2020/12/10 01:48:22;;;;;;;14.73;4.50;;;;;;;-5.81;44.82;101048.88;10498960;28;20063;-52
2020/12/10 01:53:25;;;;;;;13.50;3.88;;;;;;;-5.86;44.81;101055.66;10497302;28;20053;-50
2020/12/10 01:58:27;;;;;;;11.43;3.90;;;;;;;-5.85;44.75;101048.84;10497667;28;20056;-50
2020/12/10 02:03:28;;;;;;;10.82;4.65;;;;;;;-5.85;44.84;101043.72;10499758;28;20062;-51
2020/12/10 02:08:31;;;;;;;11.82;4.10;;;;;;;-5.82;44.66;101042.06;10500591;28;20076;-52
2020/12/10 02:13:32;;;;;;;7.70;3.60;;;;;;;-5.81;44.57;101040.34;10498350;28;20048;-52
2020/12/10 02:18:34;;;;;;;17.73;3.97;;;;;;;-5.83;44.54;101047.16;10498759;28;20052;-52
2020/12/10 02:23:37;;;;;;;9.38;3.58;;;;;;;-5.85;44.56;101038.59;10497789;28;20056;-56
2020/12/10 02:28:38;;;;;;;12.13;4.27;;;;;;;-5.87;44.64;101041.16;10497684;28;20139;-52
2020/12/10 02:33:40;;;;;;;10.57;4.15;;;;;;;-5.90;44.36;101038.59;10497667;28;20067;-50
2020/12/10 02:38:43;;;;;;;9.50;3.08;;;;;;;-5.91;44.70;101044.59;10498801;28;20051;-51
2020/12/10 02:43:44;;;;;;;8.77;3.87;;;;;;;-5.91;44.57;101034.34;10496688;28;20516;-51
2020/12/10 02:48:47;;;;;;;9.57;3.97;;;;;;;-5.87;44.43;101041.16;10495093;28;20052;-51
2020/12/10 02:53:49;;;;;;;11.63;3.75;;;;;;;-5.92;44.40;101031.75;10496791;28;20083;-50
2020/12/10 02:58:51;;;;;;;4.53;1.87;;;;;;;-5.97;44.70;101038.59;10499672;28;20432;-55
2020/12/10 03:03:52;;;;;;;8.07;3.17;;;;;;;-6.01;44.82;101030.03;10490496;28;20045;-50
2020/12/10 03:08:55;;;;;;;11.77;3.88;;;;;;;-6.07;44.69;101015.50;10503163;28;20045;-54
2020/12/10 03:13:57;;;;;;;7.40;2.63;;;;;;;-6.14;44.56;101013.78;10505431;28;20044;-51
2020/12/10 03:18:58;;;;;;;8.27;2.65;;;;;;;-6.21;44.84;101017.19;10504323;28;20047;-51
2020/12/10 03:24:01;;;;;;;7.72;3.08;;;;;;;-6.24;45.11;101019.72;10505177;28;20134;-54
2020/12/10 03:29:07;;;;;;;7.03;2.93;;;;;;;-6.26;44.93;101017.16;10504131;28;20049;-53
2020/12/10 03:34:09;;;;;;;6.78;1.98;;;;;;;-6.27;44.89;101024.81;10507280;28;20057;-54
2020/12/10 03:39:12;;;;;;;9.55;3.05;;;;;;;-6.30;44.97;101022.25;10506496;28;20040;-53
2020/12/10 03:44:14;;;;;;;10.27;4.70;;;;;;;-6.31;44.96;101020.53;10504613;28;20063;-59
2020/12/10 03:49:16;;;;;;;8.40;2.78;;;;;;;-6.29;44.84;101016.28;10501946;28;20094;-56
2020/12/10 03:54:18;;;;;;;15.82;3.75;;;;;;;-6.30;45.00;101019.69;10503769;28;20060;-52
2020/12/10 03:59:20;;;;;;;11.07;4.53;;;;;;;-6.28;44.72;101002.63;10503986;28;20083;-53
2020/12/10 04:04:22;;;;;;;10.93;3.80;;;;;;;-6.27;44.89;101009.47;10506720;28;20480;-53
2020/12/10 04:09:24;;;;;;;13.82;4.28;;;;;;;-6.25;44.82;101010.31;10503196;28;20150;-53
2020/12/10 04:14:26;;;;;;;9.87;3.57;;;;;;;-6.26;44.85;101012.03;10503361;28;20085;-53
2020/12/10 04:19:28;;;;;;;14.88;4.82;;;;;;;-6.22;44.80;101017.16;10501543;28;20048;-52
2020/12/10 04:24:30;;;;;;;10.75;4.53;;;;;;;-6.25;44.66;101007.75;10502094;28;20048;-54
2020/12/10 04:29:32;;;;;;;12.13;5.07;;;;;;;-6.21;44.65;101013.78;10501829;28;20044;-53
2020/12/10 04:34:33;;;;;;;14.15;4.75;;;;;;;-6.17;44.56;101005.25;10500961;28;20489;-52
2020/12/10 04:39:36;;;;;;;11.32;3.83;;;;;;;-6.13;44.35;101012.06;10502403;28;20041;-55
2020/12/10 04:44:38;;;;;;;27.13;5.30;;;;;;;-6.16;44.66;101009.50;10501887;28;20071;-53
2020/12/10 04:49:40;;;;;;;13.13;4.90;;;;;;;-6.20;44.42;101008.63;10500060;28;20392;-53
2020/12/10 04:54:42;;;;;;;13.90;4.18;;;;;;;-6.20;44.68;101000.97;10501410;28;20072;-53
2020/12/10 04:59:44;;;;;;;7.33;3.13;;;;;;;-6.23;44.68;100998.41;10500695;28;20036;-62
2020/12/10 05:04:46;;;;;;;7.70;3.00;;;;;;;-6.32;45.02;100985.56;10487211;28;20044;-55
2020/12/10 05:09:57;;;;;;;6.45;2.00;;;;;;;-6.40;45.40;101010.25;10497340;28;20040;-53
2020/12/10 05:14:59;;;;;;;7.63;2.83;;;;;;;-6.43;45.38;101002.56;10500799;28;20049;-53
2020/12/10 05:20:00;;;;;;;7.68;3.35;;;;;;;-6.46;45.36;101007.66;10499070;28;20072;-53
2020/12/10 05:25:04;;;;;;;10.98;3.95;;;;;;;-6.45;45.21;101017.06;10498104;28;20052;-52
2020/12/10 05:30:06;;;;;;;10.50;3.50;;;;;;;-6.45;44.97;101017.06;10499198;28;20484;-52
2020/12/10 05:35:20;;;;;;;11.88;3.67;;;;;;;-6.47;45.26;101021.31;10499197;28;20052;-53
2020/12/10 05:40:23;;;;;;;10.80;3.38;;;;;;;-6.46;45.28;101012.78;10503382;28;20041;-53
2020/12/10 05:45:24;;;;;;;11.37;3.87;;;;;;;-6.50;45.34;101022.97;10501099;28;20048;-54
2020/12/10 05:50:27;;;;;;;11.32;4.90;;;;;;;-6.37;45.88;101023.06;10496982;28;20135;-54
2020/12/10 05:55:30;;;;;;;12.75;4.75;;;;;;;-5.91;45.95;101020.66;10499206;28;20060;-52
2020/12/10 06:00:32;;;;;;;9.67;4.13;;;;;;;-5.14;46.22;101030.22;10489093;28;20067;-54
2020/12/10 06:05:35;;;;;;;8.15;4.10;;;;;;;-4.28;45.72;101024.94;10469700;28;20294;-54
2020/12/10 06:10:39;;;;;;;12.00;5.15;;;;;;;-3.36;45.24;101034.75;10498882;28;20048;-53
2020/12/10 06:15:41;;;;;;;19.35;6.88;;;;;;;-2.24;44.75;101031.16;10498121;28;20420;-52
2020/12/10 06:20:44;;;;;;;16.05;5.55;;;;;;;-1.17;44.12;101024.56;10472787;28;20052;-52
2020/12/10 06:25:47;;;;;;;11.00;4.63;;;;;;;-0.43;42.29;101017.25;10456661;28;20060;-50
2020/12/10 06:31:02;;;;;;;11.55;4.75;;;;;;;-1.69;39.47;101024.47;10455779;28;20692;-53
2020/12/10 06:36:21;;;;;;;15.00;5.05;;;;;;;-2.85;39.76;101024.06;10456490;28;20049;-54
2020/12/10 06:41:25;;;;;;;13.40;4.82;;;;;;;-3.48;40.50;101025.41;10469332;28;20048;-52
2020/12/10 06:46:26;;;;;;;12.15;4.50;;;;;;;-3.86;40.42;101037.63;10496895;28;20095;-52
2020/12/10 06:51:30;;;;;;;18.45;5.90;;;;;;;-4.16;40.70;101021.47;10495237;28;20045;-50
2020/12/10 06:56:52;;;;;;;13.77;5.57;;;;;;;-4.31;40.83;101027.53;10497221;28;20052;-55
2020/12/10 07:02:11;;;;;;;12.90;4.47;;;;;;;-4.46;41.36;101032.69;10497976;28;20053;-51
2020/12/10 07:07:17;;;;;;;15.60;5.15;;;;;;;-4.50;41.40;101026.69;10498565;28;20098;-52
2020/12/10 07:12:24;;;;;;;14.90;5.43;;;;;;;-4.59;41.59;101029.28;10497010;28;20051;-53
2020/12/10 07:17:27;;;;;;;12.68;4.53;;;;;;;-4.65;41.81;101040.44;10495889;28;20063;-53
2020/12/10 07:22:28;;;;;;;12.68;5.85;;;;;;;-3.68;43.06;101041.81;10494788;28;20048;-52
2020/12/10 07:27:31;;;;;;;12.25;5.57;;;;;;;-0.62;43.68;101045.16;10495992;28;20056;-53
2020/12/10 07:32:33;;;;;;;12.00;4.60;;;;;;;1.80;41.24;101039.69;10498763;28;20072;-53
2020/12/10 07:37:34;;;;;;;19.20;6.80;;;;;;;3.68;40.08;101038.94;10497103;28;20063;-54
2020/12/10 07:42:37;;;;;;;14.30;6.47;;;;;;;5.46;37.28;101032.03;10495939;28;20047;-54
2020/12/10 07:47:39;;;;;;;12.38;6.35;;;;;;;6.26;34.87;101015.47;10492766;28;20091;-54
2020/12/10 07:52:44;;;;;;;13.77;5.93;;;;;;;7.11;33.98;101013.09;10497142;28;20055;-54
2020/12/10 07:57:57;;;;;;;17.67;7.50;;;;;;;5.10;32.66;101003.13;10500701;28;20404;-62
2020/12/10 08:03:21;;;;;;;17.30;7.38;;;;;;;3.08;33.24;101008.97;10503546;28;20118;-53
2020/12/10 08:08:33;;;;;;;17.15;7.53;;;;;;;2.08;33.81;101004.28;10497521;28;20056;-55
2020/12/10 08:13:35;;;;;;;28.55;7.55;;;;;;;1.31;34.10;100991.78;10503513;28;20159;-53
2020/12/10 08:18:37;;;;;;;18.02;7.68;;;;;;;0.50;33.99;100986.03;10503317;28;20041;-55
2020/12/10 08:23:46;;;;;;;18.33;7.90;;;;;;;-0.10;34.12;100993.34;10503267;28;20048;-53
2020/12/10 08:28:55;;;;;;;17.77;7.68;;;;;;;-0.44;34.65;100985.41;10501943;28;20481;-52
2020/12/10 08:33:57;;;;;;;20.83;7.05;;;;;;;-0.82;34.45;100978.38;10501771;28;20048;-52
2020/12/10 08:39:01;;;;;;;19.00;7.45;;;;;;;-1.26;34.67;100973.09;10501546;28;20041;-54
2020/12/10 08:44:04;;;;;;;22.77;7.32;;;;;;;-1.64;35.29;100965.94;10500953;28;20087;-54
2020/12/10 08:49:16;;;;;;;;;;;;;;;-1.93;35.96;100953.50;10500989;28;20396;-55
2020/12/10 08:54:17;;;;;;;23.45;6.35;;;;;;;-2.06;36.05;100957.97;10498696;28;19927;-53
2020/12/10 08:59:20;;;;;;;20.58;7.18;;;;;;;-0.41;37.44;100950.91;10503164;28;20044;-55
2020/12/10 09:04:22;;;;;;;20.48;7.07;;;;;;;3.31;35.53;100947.56;10501185;28;20056;-53
2020/12/10 09:09:25;;;;;;;21.10;7.50;;;;;;;6.27;33.51;100938.81;10501492;28;20055;-54
2020/12/10 09:14:27;;;;;;;21.10;7.03;;;;;;;8.71;30.53;100924.22;10500667;28;20052;-54
2020/12/10 09:19:29;;;;;;;18.40;7.55;;;;;;;10.50;28.86;100917.59;10501080;28;20044;-54
2020/12/10 09:24:30;;;;;;;17.98;7.43;;;;;;;11.63;27.60;100918.72;10499300;28;20044;-54
2020/12/10 09:29:34;;;;;;;21.75;7.72;;;;;;;12.63;26.12;100923.78;10499449;28;20055;-54
2020/12/10 09:34:35;;;;;;;29.67;8.40;;;;;;;12.66;25.73;100922.72;10500374;28;20370;-54
2020/12/10 09:39:37;;;;;;;13.40;7.35;;;;;;;12.59;25.11;100937.28;10498926;28;20144;-54
2020/12/10 09:44:39;;;;;;;20.88;8.60;;;;;;;12.08;25.37;100929.63;10498318;28;20393;-55
2020/12/10 09:49:41;;;;;;;22.15;10.35;;;;;;;11.13;26.20;100915.16;10497538;28;20049;-56
2020/12/10 10:00:08;;;;;;;21.27;9.68;;;;;;;6.10;26.60;100904.84;10496738;28;20052;-54
2020/12/10 10:05:15;;;;;;;31.10;10.80;;;;;;;4.02;28.25;100912.84;10497316;28;20070;-54
2020/12/10 10:10:17;;;;;;;24.63;9.32;;;;;;;2.78;29.00;100916.50;10489782;28;20075;-53
2020/12/10 10:15:22;;;;;;;24.77;8.80;;;;;;;1.91;29.18;100915.78;10497339;28;20052;-54
2020/12/10 10:20:23;;;;;;;19.05;8.07;;;;;;;1.31;30.37;100907.13;10497027;28;20040;-54
2020/12/10 10:25:25;;;;;;;23.63;9.13;;;;;;;0.84;30.54;100913.59;10460300;28;20041;-57
2020/12/10 10:30:27;;;;;;;23.70;9.68;;;;;;;0.34;31.11;100907.91;10457729;28;20047;-53
2020/12/10 10:35:29;;;;;;;18.55;9.05;;;;;;;0.04;31.50;100900.00;10456564;28;20057;-54
2020/12/10 10:40:31;;;;;;;19.30;7.57;;;;;;;-0.17;31.35;100896.13;10464146;28;20381;-53
2020/12/10 10:45:34;;;;;;;15.25;7.63;;;;;;;-0.56;31.99;100890.91;10497332;28;20055;-54
2020/12/10 10:50:36;;;;;;;25.67;6.03;;;;;;;-1.07;32.98;100875.59;10496559;28;20140;-53
2020/12/10 10:55:38;;;;;;;12.27;4.85;;;;;;;-1.45;33.43;100878.81;10495901;28;20462;-53
2020/12/10 11:00:40;;;;;;;16.25;5.40;;;;;;;-1.75;33.92;100875.06;10493790;28;20476;-55
2020/12/10 11:05:44;;;;;;;11.95;5.05;;;;;;;-1.90;34.53;100878.72;10484538;28;20048;-53
2020/12/10 11:10:45;;;;;;;15.60;5.35;;;;;;;-1.98;34.63;100877.97;10496828;28;20493;-53
2020/12/10 11:15:48;;;;;;;18.55;8.07;;;;;;;-2.02;34.77;100872.00;10496651;28;20135;-54
2020/12/10 11:20:49;;;;;;;14.48;6.55;;;;;;;-2.02;35.14;100868.59;10496723;28;20052;-55
2020/12/10 11:25:51;;;;;;;15.57;4.95;;;;;;;-2.09;35.21;100865.25;10497326;28;20508;-53
2020/12/10 11:30:54;;;;;;;15.88;7.22;;;;;;;-2.16;35.54;100861.88;10506200;28;20140;-54
2020/12/10 11:35:55;;;;;;;17.08;7.25;;;;;;;-2.25;35.96;100868.91;10505082;28;20404;-54
2020/12/10 11:40:57;;;;;;;18.27;7.07;;;;;;;-2.38;36.32;100858.75;10503723;28;20047;-54
2020/12/10 11:46:01;;;;;;;18.02;7.45;;;;;;;-2.36;36.43;100867.31;10503456;28;20075;-52
2020/12/10 11:51:03;;;;;;;21.75;7.82;;;;;;;-2.32;36.44;100861.25;10504953;28;20060;-54
2020/12/10 11:56:05;;;;;;;23.48;9.27;;;;;;;-2.32;36.49;100866.41;10503115;28;20059;-55
2020/12/10 12:01:07;;;;;;;23.17;8.68;;;;;;;-2.38;36.74;100863.06;10502770;28;20048;-53
2020/12/10 12:06:09;;;;;;;18.93;7.87;;;;;;;-2.46;36.82;100852.00;10501836;28;20059;-53
2020/12/10 12:11:11;;;;;;;21.20;8.77;;;;;;;-2.63;37.62;100857.38;10502207;28;20041;-53
2020/12/10 12:16:13;;;;;;;22.40;9.63;;;;;;;-2.70;37.69;100858.34;10502659;28;20048;-54
2020/12/10 12:21:21;;;;;;;21.05;7.88;;;;;;;-2.75;37.97;100860.13;10502277;28;20380;-52
2020/12/10 12:26:29;;;;;;;19.23;7.07;;;;;;;-2.83;37.99;100863.63;10501903;28;20470;-55
2020/12/10 12:31:33;;;;;;;18.15;8.13;;;;;;;-2.91;38.30;100851.72;10502851;28;20063;-54
2020/12/10 12:36:35;;;;;;;18.95;6.53;;;;;;;-3.01;38.50;100863.84;10500259;28;20052;-52
2020/12/10 12:41:36;;;;;;;24.27;7.38;;;;;;;-3.12;38.94;100851.09;10502387;28;20045;-52
2020/12/10 12:46:39;;;;;;;24.85;8.77;;;;;;;-3.19;39.17;100857.16;10500226;28;20456;-52
2020/12/10 12:51:41;;;;;;;15.52;7.03;;;;;;;-3.18;38.85;100858.88;10497996;28;20040;-52
2020/12/10 12:56:46;;;;;;;15.98;8.27;;;;;;;-3.25;39.18;100857.22;10499530;28;20378;-54
2020/12/10 13:01:48;;;;;;;16.42;7.00;;;;;;;-3.25;39.10;100860.66;10499043;28;20036;-53
2020/12/10 13:06:51;;;;;;;23.25;10.27;;;;;;;-3.25;38.92;100858.09;10500621;28;20481;-52
2020/12/10 13:11:56;;;;;;;27.35;9.15;;;;;;;-3.33;39.60;100862.44;10501818;28;20037;-53
2020/12/10 13:16:59;;;;;;;15.57;6.30;;;;;;;-3.39;39.71;100856.50;10502328;28;20485;-52
2020/12/10 13:22:01;;;;;;;19.07;7.93;;;;;;;-3.46;39.85;100853.16;10500968;28;20048;-52
2020/12/10 13:27:03;;;;;;;13.95;5.90;;;;;;;-3.47;40.04;100866.88;10501104;28;20310;-52
2020/12/10 13:32:06;;;;;;;15.25;6.30;;;;;;;-3.51;40.38;100854.91;10501046;28;20167;-54
2020/12/10 13:37:08;;;;;;;9.67;4.50;;;;;;;-3.59;40.81;100852.41;10500160;28;20110;-53
2020/12/10 13:42:10;;;;;;;15.65;6.35;;;;;;;-3.66;40.99;100845.63;10501695;28;20044;-56
2020/12/10 13:47:16;;;;;;;14.40;5.28;;;;;;;-3.74;41.42;100852.53;10501311;28;20466;-52
2020/12/10 13:52:18;;;;;;;13.57;5.60;;;;;;;-3.80;41.71;100852.59;10498785;28;20045;-53
2020/12/10 13:57:21;;;;;;;14.88;5.22;;;;;;;-3.85;41.75;100850.03;10498862;28;20071;-53
2020/12/10 14:02:23;;;;;;;22.13;6.50;;;;;;;-3.83;41.61;100863.75;10499631;28;20409;-54
2020/12/10 14:07:26;;;;;;;20.83;6.93;;;;;;;-3.83;41.55;100853.47;10499196;28;20079;-53
2020/12/10 14:12:30;;;;;;;17.63;6.53;;;;;;;-3.85;41.55;100855.19;10499589;28;20048;-54
2020/12/10 14:17:33;;;;;;;20.20;7.43;;;;;;;-3.89;42.04;100850.94;10499916;28;20067;-53
2020/12/10 14:22:35;;;;;;;12.83;4.90;;;;;;;-3.90;42.02;100859.53;10499395;28;20055;-54
2020/12/10 14:27:36;;;;;;;17.50;7.15;;;;;;;-3.96;41.99;100857.84;10498916;28;20115;-53
2020/12/10 14:32:39;;;;;;;8.38;3.40;;;;;;;-3.96;42.10;100852.72;10498330;28;20135;-53
2020/12/10 14:37:40;;;;;;;27.92;7.00;;;;;;;-3.97;42.07;100850.16;10497201;28;20045;-55
2020/12/10 14:42:42;;;;;;;14.70;5.55;;;;;;;-3.96;42.11;100842.44;10497013;28;20044;-52
2020/12/10 14:47:45;;;;;;;13.80;5.07;;;;;;;-3.88;42.19;100841.50;10477077;28;20383;-54
2020/12/10 14:52:46;;;;;;;21.00;5.72;;;;;;;-3.60;42.18;100837.88;10496624;28;20045;-54
2020/12/10 14:57:48;;;;;;;22.10;6.07;;;;;;;-3.26;41.73;100840.97;10497120;28;20070;-55
2020/12/10 15:02:51;;;;;;;14.02;4.90;;;;;;;-3.00;41.31;100847.53;10500920;28;20075;-53
2020/12/10 15:07:53;;;;;;;13.50;5.32;;;;;;;-2.95;41.12;100840.63;10484675;28;20084;-53
2020/12/10 15:12:55;;;;;;;13.15;5.60;;;;;;;-2.80;40.82;100835.28;10463011;28;20045;-54
2020/12/10 15:17:57;;;;;;;14.93;5.47;;;;;;;-2.81;40.84;100840.44;10463161;28;20057;-56
2020/12/10 15:22:59;;;;;;;20.55;6.93;;;;;;;-3.01;40.87;100836.41;10463944;28;20051;-54
2020/12/10 15:28:01;;;;;;;14.65;5.82;;;;;;;-3.12;40.93;100833.09;10479950;28;20409;-53
2020/12/10 15:33:03;;;;;;;32.08;7.47;;;;;;;-3.23;41.37;100809.22;10505280;28;20055;-55
2020/12/10 15:38:05;;;;;;;14.52;5.70;;;;;;;-3.35;41.02;100815.34;10504540;28;20056;-53
2020/12/10 15:43:06;;;;;;;16.58;6.55;;;;;;;-3.42;41.26;100823.13;10504222;28;20087;-53
2020/12/10 15:48:09;;;;;;;15.20;7.68;;;;;;;-3.44;41.60;100820.56;10503795;28;20064;-53
2020/12/10 15:53:11;;;;;;;15.75;5.88;;;;;;;-3.35;41.62;100822.22;10503327;28;20047;-53
2020/12/10 15:58:12;;;;;;;17.63;5.82;;;;;;;-3.17;41.55;100823.72;10501722;28;20061;-53
2020/12/10 16:03:15;;;;;;;12.65;5.28;;;;;;;-3.07;41.41;100820.19;10501354;28;20052;-53
2020/12/10 16:08:17;;;;;;;18.17;6.13;;;;;;;-3.14;41.44;100826.25;10501108;28;20044;-54
2020/12/10 16:13:18;;;;;;;17.25;5.30;;;;;;;-3.05;41.21;100818.41;10500152;28;20083;-53
2020/12/10 16:18:21;;;;;;;17.27;6.47;;;;;;;-2.83;41.06;100804.44;10503048;28;20059;-55
2020/12/10 16:23:23;;;;;;;17.83;5.93;;;;;;;-2.79;40.76;100806.09;10501356;28;20158;-54
2020/12/10 16:28:24;;;;;;;25.30;7.93;;;;;;;-2.71;40.97;100812.88;10500707;28;20056;-55
2020/12/10 16:33:27;;;;;;;21.05;7.63;;;;;;;-2.67;40.95;100797.38;10500375;28;20116;-54
2020/12/10 16:38:29;;;;;;;19.42;3.90;;;;;;;-2.73;41.09;100799.19;10495694;28;20154;-55
2020/12/10 16:43:30;;;;;;;17.20;8.15;;;;;;;-2.98;40.77;100793.50;10499441;28;20044;-52
2020/12/10 16:48:33;;;;;;;19.40;6.18;;;;;;;-3.04;41.20;100802.16;10497248;28;20048;-53
2020/12/10 16:53:35;;;;;;;5.95;2.60;;;;;;;-3.17;41.21;100795.41;10497536;28;20056;-57
2020/12/10 16:58:36;;;;;;;10.57;3.83;;;;;;;-3.34;41.48;100805.91;10466556;28;995401;-52
2020/12/10 17:03:39;;;;;;;14.48;6.40;;;;;;;-3.52;41.59;100789.78;10500105;28;20044;-52
2020/12/10 17:08:41;;;;;;;12.13;5.33;;;;;;;-3.51;41.92;100788.94;10500817;28;20159;-52
2020/12/10 17:13:42;;;;;;;16.33;6.57;;;;;;;-3.28;41.54;100775.81;10500349;28;20040;-52
2020/12/10 17:18:46;;;;;;;12.80;4.60;;;;;;;-3.21;41.74;100756.03;10501313;28;20057;-55
2020/12/10 17:23:49;;;;;;;14.10;6.85;;;;;;;-3.18;41.54;100770.56;10500090;28;20408;-52
2020/12/10 17:28:50;;;;;;;6.22;2.97;;;;;;;-3.15;41.53;100770.53;10499871;28;20106;-52
2020/12/10 17:33:53;;;;;;;14.93;6.68;;;;;;;-3.14;41.52;100772.22;10498838;28;20508;-54
2020/12/10 17:38:57;;;;;;;14.87;4.87;;;;;;;-3.21;41.63;100760.31;10499503;28;20057;-54
2020/12/10 17:43:59;;;;;;;15.93;6.18;;;;;;;-3.47;41.82;100758.91;10499697;28;20040;-53
2020/12/10 17:49:01;;;;;;;21.85;7.78;;;;;;;-3.58;41.99;100750.44;10499139;28;20045;-56
2020/12/10 17:54:04;;;;;;;14.40;6.83;;;;;;;-3.70;42.15;100736.00;10496594;28;20049;-52
2020/12/10 17:59:06;;;;;;;20.33;7.03;;;;;;;-3.78;42.66;100738.66;10498761;28;20109;-53
2020/12/10 18:04:08;;;;;;;8.20;3.80;;;;;;;-3.75;42.63;100743.78;10499222;28;20144;-53
2020/12/10 18:09:10;;;;;;;9.27;3.08;;;;;;;-3.76;42.73;100760.03;10456476;28;20470;-52
2020/12/10 18:14:12;;;;;;;13.05;5.30;;;;;;;-3.82;42.64;100746.41;10456669;28;20061;-52
2020/12/10 18:19:14;;;;;;;16.23;5.88;;;;;;;-3.88;42.77;100739.59;10456913;28;20053;-54
2020/12/10 18:24:16;;;;;;;11.27;5.23;;;;;;;-3.89;42.49;100730.19;10456057;28;20045;-53
2020/12/10 18:29:18;;;;;;;20.38;7.13;;;;;;;-3.94;42.63;100729.41;10455650;28;20044;-53
2020/12/10 18:34:21;;;;;;;15.80;7.18;;;;;;;-3.97;42.53;100732.00;10455482;28;20397;-55
2020/12/10 18:39:22;;;;;;;3.40;1.67;;;;;;;-3.99;42.56;100728.59;10456024;28;20044;-55
2020/12/10 18:44:24;;;;;;;14.45;5.97;;;;;;;-4.04;42.60;100738.03;10493838;28;20053;-53
2020/12/10 18:49:27;;;;;;;17.77;6.43;;;;;;;-4.08;42.53;100723.53;10496238;28;20059;-58
2020/12/10 18:54:29;;;;;;;18.23;6.90;;;;;;;-4.10;42.46;100726.09;10496439;28;20091;-54
2020/12/10 18:59:31;;;;;;;13.65;6.78;;;;;;;-4.16;42.60;100726.16;10499813;28;20436;-53
2020/12/10 19:04:34;;;;;;;16.70;5.35;;;;;;;-4.18;42.76;100731.31;10497360;28;20048;-52
2020/12/10 19:09:36;;;;;;;12.27;5.90;;;;;;;-4.19;42.85;100739.91;10497291;28;20086;-53
2020/12/10 19:14:38;;;;;;;15.88;7.22;;;;;;;-4.20;42.91;100725.34;10496390;28;20447;-53
2020/12/10 19:19:41;;;;;;;15.20;6.50;;;;;;;-4.17;42.82;100734.72;10497781;28;20388;-52
2020/12/10 19:24:43;;;;;;;18.07;7.53;;;;;;;-4.11;42.92;100734.69;10498237;28;20052;-52
2020/12/10 19:29:45;;;;;;;19.05;6.75;;;;;;;-4.12;43.11;100745.84;10497782;28;20186;-58
2020/12/10 19:34:47;;;;;;;21.13;7.05;;;;;;;-4.11;43.11;100750.09;10497985;28;20392;-52
2020/12/10 19:39:50;;;;;;;17.13;7.82;;;;;;;-3.97;42.50;100753.41;10498277;28;20048;-52
2020/12/10 19:44:52;;;;;;;11.38;4.57;;;;;;;-4.06;42.52;100757.78;10500835;28;20052;-55
2020/12/10 19:49:55;;;;;;;16.87;6.67;;;;;;;-4.14;42.90;100751.84;10500939;28;20151;-53
2020/12/10 19:54:58;;;;;;;7.73;3.57;;;;;;;-4.22;42.85;100755.31;10495573;28;20064;-53
2020/12/10 20:00:00;;;;;;;18.25;6.85;;;;;;;-4.28;43.04;100772.47;10498432;28;20045;-54
2020/12/10 20:05:03;;;;;;;18.85;7.28;;;;;;;-4.36;43.16;100759.72;10474248;28;20503;-52
2020/12/10 20:10:05;;;;;;;19.13;6.37;;;;;;;-4.42;43.33;100752.91;10503623;28;20054;-53
2020/12/10 20:15:06;;;;;;;18.77;6.53;;;;;;;-4.44;43.34;100753.75;10502296;28;20051;-53
2020/12/10 20:20:10;;;;;;;17.52;6.15;;;;;;;-4.49;43.35;100758.94;10482067;28;20045;-54
2020/12/10 20:25:19;;;;;;;13.55;5.60;;;;;;;-4.50;43.56;100771.78;10501310;28;20110;-53
2020/12/10 20:30:21;;;;;;;9.13;3.85;;;;;;;-4.50;43.27;100761.50;10507534;28;20090;-56
2020/12/10 20:35:24;;;;;;;12.50;5.15;;;;;;;-4.47;43.14;100752.06;10504993;28;20044;-55
2020/12/10 20:40:25;;;;;;;20.23;4.53;;;;;;;-4.45;42.93;100740.09;10502863;28;20040;-56
2020/12/10 20:45:27;;;;;;;17.35;7.85;;;;;;;-4.52;43.09;100732.44;10502747;28;20083;-53
2020/12/10 20:50:30;;;;;;;14.95;6.50;;;;;;;-4.60;43.29;100722.22;10500775;28;20056;-53
2020/12/10 20:55:32;;;;;;;13.23;4.75;;;;;;;-4.70;43.86;100708.63;10501870;28;20105;-54
2020/12/10 21:00:34;;;;;;;17.88;5.78;;;;;;;-4.70;43.54;100713.75;10479135;28;20044;-53
2020/12/10 21:05:36;;;;;;;6.97;3.40;;;;;;;-4.75;44.09;100710.34;10479952;28;20055;-54
2020/12/10 21:10:38;;;;;;;14.20;5.93;;;;;;;-4.75;43.86;100705.22;10460079;28;20077;-53
2020/12/10 21:15:39;;;;;;;11.50;3.10;;;;;;;-4.76;43.93;100705.25;10459844;28;20064;-53
2020/12/10 21:20:42;;;;;;;12.00;3.55;;;;;;;-4.80;44.13;100706.97;10461545;28;20040;-53
2020/12/10 21:25:44;;;;;;;11.23;4.20;;;;;;;-4.79;43.95;100700.13;10462386;28;20049;-53
2020/12/10 21:30:47;;;;;;;11.65;5.32;;;;;;;-4.78;44.01;100699.25;10497083;28;20507;-54
2020/12/10 21:35:49;;;;;;;11.63;4.17;;;;;;;-4.80;44.04;100694.16;10499849;28;20459;-53
2020/12/10 21:40:51;;;;;;;9.10;4.03;;;;;;;-4.76;43.94;100693.25;10499415;28;20043;-53
2020/12/10 21:45:52;;;;;;;11.65;4.00;;;;;;;-4.73;43.78;100692.41;10500192;28;20079;-54
2020/12/10 21:50:55;;;;;;;10.95;4.65;;;;;;;-4.73;43.96;100702.66;10497544;28;20076;-53
2020/12/10 21:55:57;;;;;;;9.90;4.03;;;;;;;-4.74;43.69;100690.66;10500061;28;20400;-53
2020/12/10 22:00:58;;;;;;;17.02;5.65;;;;;;;-4.71;43.72;100695.78;10499615;28;20055;-55
2020/12/10 22:06:01;;;;;;;13.50;5.97;;;;;;;-4.63;43.32;100694.88;10499288;28;20151;-55
2020/12/10 22:11:05;;;;;;;14.25;4.28;;;;;;;-4.60;43.34;100695.72;10499224;28;20481;-56
2020/12/10 22:16:07;;;;;;;;;;;;;;;-4.63;43.32;100687.16;10501188;28;20049;-53
2020/12/10 22:21:14;;;;;;;13.63;5.10;;;;;;;-4.63;43.12;100688.91;10499028;28;20285;-53
2020/12/10 22:26:20;;;;;;;14.82;5.53;;;;;;;-4.67;43.26;100693.19;10496879;28;20106;-53
2020/12/10 22:31:24;;;;;;;14.02;6.05;;;;;;;-4.61;43.10;100684.63;10499383;28;20044;-55
2020/12/10 22:36:27;;;;;;;13.18;5.10;;;;;;;-4.64;43.07;100682.06;10497972;28;20048;-52
2020/12/10 22:41:28;;;;;;;11.70;4.60;;;;;;;-4.65;43.21;100688.91;10499260;28;20121;-53
2020/12/10 22:46:30;;;;;;;16.42;5.60;;;;;;;-4.65;43.02;100682.91;10498600;28;20048;-55
2020/12/10 22:51:33;;;;;;;12.45;5.57;;;;;;;-4.65;42.95;100696.63;10495907;28;20412;-53
2020/12/10 22:56:34;;;;;;;12.23;4.82;;;;;;;-4.65;43.13;100701.75;10497679;28;20389;-54
2020/12/10 23:01:36;;;;;;;12.80;5.00;;;;;;;-4.71;43.21;100704.34;10503241;28;20052;-54
2020/12/10 23:06:39;;;;;;;12.10;4.57;;;;;;;-4.79;43.29;100702.69;10497779;28;20501;-54